createdAt,value
2019-02-12T00:02:26.287Z,8.07
2019-02-12T00:04:53.123Z,7.67
2019-02-12T00:07:19.657Z,6.40
2019-02-12T00:09:46.274Z,7.23
2019-02-12T00:12:13.032Z,6.83
2019-02-12T00:14:39.566Z,8.87
2019-02-12T00:17:06.106Z,7.03
2019-02-12T00:19:32.947Z,6.67
2019-02-12T00:21:59.478Z,6.20
2019-02-12T00:24:26.015Z,6.50
2019-02-12T00:26:52.882Z,5.60
2019-02-12T00:29:19.402Z,5.47
2019-02-12T00:31:46.261Z,7.27
2019-02-12T00:34:13.075Z,9.60
2019-02-12T00:36:39.606Z,6.17
2019-02-12T00:39:06.143Z,5.77
2019-02-12T00:41:32.983Z,5.90
2019-02-12T00:43:59.522Z,5.20
2019-02-12T00:46:26.058Z,5.87
2019-02-12T00:48:52.894Z,8.03
2019-02-12T00:51:19.429Z,5.53
2019-02-12T00:53:45.962Z,4.43
2019-02-12T00:56:12.791Z,9.47
2019-02-12T00:58:39.338Z,6.50
2019-02-12T01:01:05.872Z,6.20
2019-02-12T01:03:33.007Z,6.00
2019-02-12T01:05:59.615Z,4.67
2019-02-12T01:08:26.398Z,4.70
2019-02-12T01:10:53.245Z,4.83
2019-02-12T01:13:19.791Z,6.10
2019-02-12T01:15:46.308Z,4.10
2019-02-12T01:18:13.149Z,4.83
2019-02-12T01:20:39.691Z,5.57
2019-02-12T01:23:06.526Z,4.63
2019-02-12T01:25:33.367Z,8.00
2019-02-12T01:27:59.879Z,4.90
2019-02-12T01:30:26.446Z,9.77
2019-02-12T01:32:52.974Z,4.47
2019-02-12T01:35:19.506Z,6.63
2019-02-12T01:37:46.351Z,5.03
2019-02-12T01:40:13.189Z,5.03
2019-02-12T01:42:39.724Z,6.40
2019-02-12T01:45:06.580Z,4.60
2019-02-12T01:47:33.419Z,3.80
2019-02-12T01:49:59.919Z,4.40
2019-02-12T01:52:26.475Z,4.80
2019-02-12T01:54:53.320Z,3.17
2019-02-12T01:57:19.855Z,5.87
2019-02-12T01:59:46.390Z,3.03
2019-02-12T02:02:13.236Z,5.17
2019-02-12T02:04:39.766Z,3.03
2019-02-12T02:07:06.626Z,12.10
2019-02-12T02:09:33.242Z,5.30
2019-02-12T02:11:59.986Z,3.77
2019-02-12T02:14:26.516Z,5.17
2019-02-12T02:16:53.359Z,4.27
2019-02-12T02:19:19.896Z,5.73
2019-02-12T02:21:46.426Z,3.57
2019-02-12T02:24:13.270Z,4.67
2019-02-12T02:26:39.802Z,2.90
2019-02-12T02:29:06.360Z,4.83
2019-02-12T02:31:33.179Z,4.73
2019-02-12T02:33:59.718Z,3.50
2019-02-12T02:36:26.248Z,3.43
2019-02-12T02:38:53.089Z,3.80
2019-02-12T02:41:19.633Z,3.17
2019-02-12T02:43:46.140Z,3.87
2019-02-12T02:46:13.151Z,5.53
2019-02-12T02:48:39.844Z,3.33
2019-02-12T02:51:06.384Z,3.17
2019-02-12T02:53:33.219Z,2.63
2019-02-12T02:55:59.752Z,3.03
2019-02-12T02:58:26.288Z,3.53
2019-02-12T03:00:52.901Z,5.80
2019-02-12T03:03:19.650Z,3.03
2019-02-12T03:05:46.506Z,4.33
2019-02-12T03:08:13.345Z,3.63
2019-02-12T03:10:39.881Z,4.53
2019-02-12T03:13:06.724Z,4.70
2019-02-12T03:15:33.565Z,3.03
2019-02-12T03:18:00.099Z,4.07
2019-02-12T03:20:26.638Z,2.33
2019-02-12T03:22:53.479Z,2.80
2019-02-12T03:25:20.027Z,3.17
2019-02-12T03:27:46.543Z,3.03
2019-02-12T03:30:13.410Z,3.00
2019-02-12T03:32:39.929Z,2.47
2019-02-12T03:35:06.465Z,2.93
2019-02-12T03:37:33.092Z,3.67
2019-02-12T03:39:59.831Z,3.93
2019-02-12T03:42:26.698Z,2.27
2019-02-12T03:44:53.518Z,2.37
2019-02-12T03:47:20.066Z,3.17
2019-02-12T03:49:46.889Z,5.17
2019-02-12T03:52:13.736Z,3.73
2019-02-12T03:54:40.270Z,2.83
2019-02-12T03:57:06.802Z,2.20
2019-02-12T03:59:33.954Z,3.83
2019-02-12T04:02:00.476Z,3.17
2019-02-12T04:04:27.019Z,2.70
2019-02-12T04:06:53.655Z,1.90
2019-02-12T04:09:20.407Z,3.23
2019-02-12T04:11:46.929Z,3.47
2019-02-12T04:14:13.770Z,2.80
2019-02-12T04:16:40.304Z,3.17
2019-02-12T04:19:06.842Z,2.03
2019-02-12T04:21:33.484Z,2.30
2019-02-12T04:24:00.216Z,2.20
2019-02-12T04:26:26.756Z,3.67
2019-02-12T04:28:53.595Z,6.83
2019-02-12T04:31:20.128Z,9.50
2019-02-12T04:33:46.655Z,3.47
2019-02-12T04:36:13.277Z,2.63
2019-02-12T04:38:39.814Z,3.27
2019-02-12T04:41:06.346Z,2.20
2019-02-12T04:43:33.105Z,1.63
2019-02-12T04:45:59.640Z,3.60
2019-02-12T04:48:26.487Z,3.90
2019-02-12T04:50:53.017Z,3.20
2019-02-12T04:53:19.869Z,1.60
2019-02-12T04:55:46.397Z,3.20
2019-02-12T04:58:12.927Z,3.83
2019-02-12T05:00:39.770Z,3.43
2019-02-12T05:03:06.304Z,2.30
2019-02-12T05:05:32.866Z,2.43
2019-02-12T05:07:59.377Z,4.37
2019-02-12T05:10:26.219Z,3.70
2019-02-12T05:12:52.831Z,5.97
2019-02-12T05:15:19.593Z,3.10
2019-02-12T05:17:46.127Z,2.97
2019-02-12T05:20:12.650Z,2.20
2019-02-12T05:22:43.468Z,1.70
2019-02-12T05:25:07.575Z,2.83
2019-02-12T05:27:34.107Z,2.20
2019-02-12T05:30:00.646Z,2.40
2019-02-12T05:32:27.174Z,2.17
2019-02-12T05:34:55.775Z,2.20
2019-02-12T05:37:22.135Z,3.83
2019-02-12T05:39:48.723Z,2.57
2019-02-12T05:42:15.464Z,1.60
2019-02-12T05:44:41.998Z,2.20
2019-02-12T05:47:08.535Z,3.90
2019-02-12T05:49:35.376Z,1.33
2019-02-12T05:52:01.907Z,3.87
2019-02-12T05:54:28.753Z,1.37
2019-02-12T05:56:55.594Z,2.50
2019-02-12T05:59:22.131Z,3.07
2019-02-12T06:01:48.662Z,4.67
2019-02-12T06:04:15.173Z,3.47
2019-02-12T06:06:41.730Z,3.13
2019-02-12T06:09:08.572Z,6.83
2019-02-12T06:11:35.108Z,6.60
2019-02-12T06:14:01.661Z,16.23
2019-02-12T06:16:28.189Z,5.47
2019-02-12T06:18:55.032Z,5.63
2019-02-12T06:21:21.553Z,9.30
2019-02-12T06:23:48.394Z,4.00
2019-02-12T06:26:14.933Z,4.63
2019-02-12T06:28:41.439Z,6.40
2019-02-12T06:31:08.002Z,2.37
2019-02-12T06:33:34.837Z,4.57
2019-02-12T06:36:01.381Z,4.07
2019-02-12T06:38:27.905Z,3.67
2019-02-12T06:40:54.445Z,5.90
2019-02-12T06:43:20.981Z,3.40
2019-02-12T06:45:47.817Z,3.07
2019-02-12T06:48:14.661Z,8.27
2019-02-12T06:50:41.501Z,3.50
2019-02-12T06:53:12.519Z,3.27
2019-02-12T06:55:36.720Z,4.17
2019-02-12T06:58:03.575Z,5.77
2019-02-12T07:00:30.097Z,9.23
2019-02-12T07:02:56.968Z,3.30
2019-02-12T07:05:23.779Z,7.30
2019-02-12T07:07:50.314Z,5.10
2019-02-12T07:10:16.940Z,5.03
2019-02-12T07:12:43.462Z,6.23
2019-02-12T07:15:10.226Z,2.33
2019-02-12T07:17:36.786Z,3.50
2019-02-12T07:20:03.600Z,4.13
2019-02-12T07:22:30.447Z,2.70
2019-02-12T07:24:56.976Z,3.07
2019-02-12T07:27:23.819Z,3.90
2019-02-12T07:29:50.695Z,4.30
2019-02-12T07:32:17.503Z,2.40
2019-02-12T07:34:44.355Z,5.03
2019-02-12T07:37:10.881Z,2.30
2019-02-12T07:39:37.726Z,2.27
2019-02-12T07:42:04.576Z,3.80
2019-02-12T07:44:31.097Z,3.50
2019-02-12T07:46:57.940Z,2.87
2019-02-12T07:49:24.471Z,2.93
2019-02-12T07:51:51.006Z,3.37
2019-02-12T07:54:17.543Z,9.57
2019-02-12T07:56:44.075Z,3.97
2019-02-12T07:59:10.919Z,2.53
2019-02-12T08:01:37.455Z,2.67
2019-02-12T08:04:04.133Z,2.87
2019-02-12T08:06:30.833Z,7.83
2019-02-12T08:08:57.668Z,5.07
2019-02-12T08:11:24.306Z,5.17
2019-02-12T08:13:50.930Z,3.37
2019-02-12T08:16:17.580Z,5.77
2019-02-12T08:18:44.124Z,3.20
2019-02-12T08:21:10.654Z,5.27
2019-02-12T08:23:41.311Z,3.50
2019-02-12T08:26:05.564Z,3.37
2019-02-12T08:28:32.095Z,3.00
2019-02-12T08:30:58.942Z,6.13
2019-02-12T08:33:25.475Z,4.60
2019-02-12T08:35:57.336Z,3.33
2019-02-12T08:38:20.383Z,1.77
2019-02-12T08:40:46.919Z,4.83
2019-02-12T08:43:13.454Z,10.97
2019-02-12T08:45:40.297Z,6.20
2019-02-12T08:48:06.831Z,4.10
2019-02-12T08:50:33.366Z,3.40
2019-02-12T08:53:00.205Z,2.47
2019-02-12T08:55:26.743Z,5.17
2019-02-12T08:57:53.251Z,3.23
2019-02-12T09:00:19.814Z,3.70
2019-02-12T09:02:46.344Z,3.60
2019-02-12T09:05:12.879Z,3.37
2019-02-12T09:07:39.414Z,3.10
2019-02-12T09:10:05.946Z,2.53
2019-02-12T09:12:32.792Z,3.57
2019-02-12T09:14:59.323Z,9.73
2019-02-12T09:17:25.859Z,3.67
2019-02-12T09:19:52.397Z,2.93
2019-02-12T09:22:19.236Z,4.10
2019-02-12T09:24:46.080Z,3.47
2019-02-12T09:27:12.916Z,3.73
2019-02-12T09:29:39.454Z,2.97
2019-02-12T09:32:06.027Z,5.83
2019-02-12T09:34:32.827Z,2.60
2019-02-12T09:36:59.671Z,2.40
2019-02-12T09:39:26.206Z,2.90
2019-02-12T09:41:53.094Z,3.77
2019-02-12T09:44:19.888Z,4.33
2019-02-12T09:46:46.729Z,5.73
2019-02-12T09:49:13.571Z,4.10
2019-02-12T09:51:40.105Z,5.43
2019-02-12T09:54:08.816Z,9.90
2019-02-12T09:56:35.015Z,5.53
2019-02-12T09:59:01.553Z,3.73
2019-02-12T10:01:28.391Z,3.77
2019-02-12T10:03:54.927Z,3.77
2019-02-12T10:06:24.235Z,6.90
2019-02-12T10:08:49.842Z,3.27
2019-02-12T10:11:16.681Z,5.93
2019-02-12T10:13:43.529Z,4.60
2019-02-12T10:16:10.056Z,6.37
2019-02-12T10:18:36.678Z,3.60
2019-02-12T10:21:03.227Z,4.23
2019-02-12T10:23:29.805Z,4.97
2019-02-12T10:25:56.814Z,3.33
2019-02-12T10:28:23.345Z,4.57
2019-02-12T10:30:49.878Z,2.80
2019-02-12T10:33:16.490Z,3.17
2019-02-12T10:35:43.040Z,2.23
2019-02-12T10:40:36.331Z,3.13
2019-02-12T10:43:02.857Z,2.90
2019-02-12T10:45:29.393Z,1.80
2019-02-12T10:47:55.926Z,2.77
2019-02-12T10:50:22.773Z,2.80
2019-02-12T10:52:49.302Z,4.73
2019-02-12T10:55:16.145Z,3.03
2019-02-12T10:57:42.986Z,3.30
2019-02-12T11:00:09.527Z,2.60
2019-02-12T11:02:36.361Z,4.50
2019-02-12T11:05:02.898Z,2.67
2019-02-12T11:07:29.431Z,3.47
2019-02-12T11:09:56.271Z,4.93
2019-02-12T11:12:22.808Z,5.17
2019-02-12T11:14:49.653Z,2.73
2019-02-12T11:17:16.183Z,2.77
2019-02-12T11:19:42.732Z,3.10
2019-02-12T11:22:09.254Z,5.53
2019-02-12T11:24:35.899Z,2.33
2019-02-12T11:27:02.936Z,3.20
2019-02-12T11:29:30.472Z,2.53
2019-02-12T11:31:57.231Z,2.73
2019-02-12T11:34:23.772Z,9.20
2019-02-12T11:36:50.301Z,3.00
2019-02-12T11:39:16.914Z,2.87
2019-02-12T11:41:43.665Z,3.30
2019-02-12T11:44:10.210Z,3.43
2019-02-12T11:46:37.058Z,4.30
2019-02-12T11:49:03.586Z,7.43
2019-02-12T11:51:30.429Z,6.07
2019-02-12T11:53:56.881Z,4.77
2019-02-12T11:56:23.509Z,6.27
2019-02-12T11:58:50.031Z,4.93
2019-02-12T12:01:16.873Z,7.80
2019-02-12T12:03:43.720Z,9.23
2019-02-12T12:06:10.251Z,5.10
2019-02-12T12:08:36.785Z,4.73
2019-02-12T12:11:03.324Z,5.47
2019-02-12T12:13:30.153Z,3.53
2019-02-12T12:15:57.001Z,4.93
2019-02-12T12:18:23.540Z,6.57
2019-02-12T12:20:50.432Z,6.23
2019-02-12T12:23:16.919Z,7.37
2019-02-12T12:25:43.754Z,6.33
2019-02-12T12:28:10.599Z,4.00
2019-02-12T12:30:37.437Z,4.50
2019-02-12T12:33:04.279Z,7.30
2019-02-12T12:35:31.142Z,4.47
2019-02-12T12:37:57.660Z,3.47
2019-02-12T12:40:24.292Z,5.83
2019-02-12T12:42:51.031Z,6.00
2019-02-12T12:45:17.570Z,8.93
2019-02-12T12:47:44.102Z,6.40
2019-02-12T12:50:10.656Z,8.60
2019-02-12T12:52:37.477Z,7.33
2019-02-12T12:55:04.330Z,6.10
2019-02-12T12:57:30.859Z,4.47
2019-02-12T12:59:57.387Z,3.10
2019-02-12T13:02:24.231Z,3.50
2019-02-12T13:04:50.948Z,5.07
2019-02-12T13:07:17.608Z,4.23
2019-02-12T13:09:44.139Z,5.27
2019-02-12T13:12:10.675Z,4.03
2019-02-12T13:14:37.207Z,3.33
2019-02-12T13:17:04.074Z,4.10
2019-02-12T13:19:30.584Z,2.97
2019-02-12T13:21:57.426Z,6.97
2019-02-12T13:24:23.959Z,3.43
2019-02-12T13:26:52.043Z,3.70
2019-02-12T13:29:19.192Z,4.43
2019-02-12T13:31:45.713Z,5.63
2019-02-12T13:34:12.555Z,5.70
2019-02-12T13:36:39.092Z,3.87
2019-02-12T13:39:05.646Z,2.67
2019-02-12T13:41:32.465Z,5.13
2019-02-12T13:43:59.001Z,3.57
2019-02-12T13:46:25.534Z,5.00
2019-02-12T13:48:52.479Z,6.83
2019-02-12T13:51:19.221Z,4.83
2019-02-12T13:53:46.084Z,3.57
2019-02-12T13:56:12.902Z,4.50
2019-02-12T13:58:39.437Z,5.23
2019-02-12T14:01:05.971Z,4.93
2019-02-12T14:03:32.508Z,3.53
2019-02-12T14:05:59.402Z,5.47
2019-02-12T14:08:26.271Z,3.93
2019-02-12T14:10:53.048Z,3.37
2019-02-12T14:13:21.535Z,8.30
2019-02-12T14:15:48.559Z,3.77
2019-02-12T14:18:15.704Z,5.20
2019-02-12T14:20:42.547Z,4.13
2019-02-12T14:23:09.089Z,4.60
2019-02-12T14:25:35.934Z,4.23
2019-02-12T14:28:02.765Z,4.53
2019-02-12T14:30:29.610Z,6.97
2019-02-12T14:32:56.141Z,14.20
2019-02-12T14:35:22.675Z,12.77
2019-02-12T14:37:49.519Z,11.77
2019-02-12T14:40:16.054Z,10.57
2019-02-12T14:42:42.891Z,9.37
2019-02-12T14:45:09.428Z,12.70
2019-02-12T14:47:35.963Z,11.13
2019-02-12T14:50:02.499Z,15.00
2019-02-12T14:52:29.338Z,16.23
2019-02-12T14:54:55.975Z,13.57
2019-02-12T14:57:22.719Z,12.70
2019-02-12T14:59:49.247Z,10.13
2019-02-12T15:02:16.090Z,10.40
2019-02-12T15:04:43.853Z,10.10
2019-02-12T15:07:10.527Z,11.23
2019-02-12T15:09:37.232Z,10.67
2019-02-12T15:12:03.765Z,10.20
2019-02-12T15:14:30.301Z,8.97
2019-02-12T15:16:57.140Z,7.10
2019-02-12T15:19:23.983Z,10.40
2019-02-12T15:21:50.516Z,6.70
2019-02-12T15:24:17.052Z,13.23
2019-02-12T15:26:43.588Z,7.70
2019-02-12T15:29:10.122Z,9.00
2019-02-12T15:31:36.987Z,7.83
2019-02-12T15:34:03.496Z,6.97
2019-02-12T15:36:30.036Z,7.03
2019-02-12T15:38:56.614Z,9.10
2019-02-12T15:41:23.098Z,9.63
2019-02-12T15:43:49.695Z,12.37
2019-02-12T15:46:16.475Z,9.53
2019-02-12T15:48:43.015Z,11.97
2019-02-12T15:51:09.562Z,10.20
2019-02-12T15:53:36.389Z,6.20
2019-02-12T15:56:03.535Z,8.47
2019-02-12T15:58:30.322Z,15.17
2019-02-12T16:00:57.223Z,5.90
2019-02-12T16:03:23.751Z,7.13
2019-02-12T16:05:50.293Z,6.53
2019-02-12T16:08:17.135Z,5.87
2019-02-12T16:10:43.668Z,7.67
2019-02-12T16:13:11.566Z,6.40
2019-02-12T16:15:38.575Z,6.30
2019-02-12T16:18:05.154Z,7.17
2019-02-12T16:20:33.091Z,6.43
2019-02-12T16:23:00.023Z,5.90
2019-02-12T16:25:26.556Z,5.40
2019-02-12T16:27:53.090Z,6.13
2019-02-12T16:30:19.627Z,9.53
2019-02-12T16:32:46.581Z,6.37
2019-02-12T16:35:13.308Z,7.47
2019-02-12T16:37:39.845Z,6.37
2019-02-12T16:40:06.683Z,7.10
2019-02-12T16:42:33.221Z,8.07
2019-02-12T16:44:59.861Z,6.50
2019-02-12T16:47:26.611Z,6.63
2019-02-12T16:49:53.129Z,5.83
2019-02-12T16:52:21.089Z,5.30
2019-02-12T16:54:48.060Z,8.23
2019-02-12T16:57:15.191Z,7.70
2019-02-12T16:59:41.735Z,6.60
2019-02-12T17:02:08.261Z,5.80
2019-02-12T17:04:35.101Z,6.17
2019-02-12T17:07:01.640Z,9.17
2019-02-12T17:09:28.491Z,8.53
2019-02-12T17:11:55.021Z,5.23
2019-02-12T17:14:21.886Z,6.13
2019-02-12T17:16:48.390Z,6.13
2019-02-12T17:19:14.924Z,5.13
2019-02-12T17:21:41.764Z,4.77
2019-02-12T17:24:08.302Z,7.83
2019-02-12T17:26:34.837Z,5.97
2019-02-12T17:29:01.705Z,5.43
2019-02-12T17:31:28.515Z,5.37
2019-02-12T17:33:55.361Z,4.23
2019-02-12T17:36:21.893Z,5.63
2019-02-12T17:38:50.204Z,5.60
2019-02-12T17:41:17.111Z,7.00
2019-02-12T17:43:43.669Z,5.50
2019-02-12T17:46:10.261Z,7.63
2019-02-12T17:48:37.021Z,5.27
2019-02-12T17:51:03.557Z,5.40
2019-02-12T17:53:30.173Z,6.90
2019-02-12T17:55:56.933Z,6.07
2019-02-12T17:58:23.774Z,5.80
2019-02-12T18:00:50.317Z,6.67
2019-02-12T18:03:16.844Z,8.33
2019-02-12T18:05:43.685Z,6.80
2019-02-12T18:08:10.219Z,6.23
2019-02-12T18:10:37.063Z,6.37
2019-02-12T18:13:03.636Z,6.63
2019-02-12T18:15:30.436Z,14.97
2019-02-12T18:17:56.977Z,5.13
2019-02-12T18:20:26.489Z,7.17
2019-02-12T18:22:51.882Z,5.73
2019-02-12T18:25:18.506Z,7.70
2019-02-12T18:27:45.845Z,6.67
2019-02-12T18:30:12.728Z,6.17
2019-02-12T18:32:39.260Z,15.10
2019-02-12T18:35:05.888Z,8.97
2019-02-12T18:37:32.616Z,7.00
2019-02-12T18:39:59.160Z,5.60
2019-02-12T18:42:25.697Z,7.50
2019-02-12T18:44:52.540Z,7.10
2019-02-12T18:47:19.685Z,6.27
2019-02-12T18:49:46.223Z,7.93
2019-02-12T18:52:12.754Z,9.30
2019-02-12T18:54:39.595Z,6.80
2019-02-12T18:57:06.232Z,6.53
2019-02-12T18:59:32.973Z,5.57
2019-02-12T19:01:59.819Z,5.37
2019-02-12T19:04:26.348Z,12.37
2019-02-12T19:06:53.193Z,10.33
2019-02-12T19:09:19.723Z,6.30
2019-02-12T19:11:54.137Z,16.80
2019-02-12T19:14:14.637Z,8.27
2019-02-12T19:16:41.172Z,10.53
2019-02-12T19:19:08.016Z,5.60
2019-02-12T19:24:23.832Z,5.93
2019-02-12T19:26:50.350Z,6.80
2019-02-12T19:29:17.190Z,6.97
2019-02-12T19:31:44.036Z,6.07
2019-02-12T19:34:10.570Z,7.80
2019-02-12T19:36:37.408Z,5.03
2019-02-12T19:39:04.254Z,10.57
2019-02-12T19:41:30.784Z,5.63
2019-02-12T19:43:57.627Z,6.77
2019-02-12T19:46:24.166Z,6.43
2019-02-12T19:48:51.002Z,7.03
2019-02-12T19:51:17.638Z,6.13
2019-02-12T19:53:44.315Z,6.27
2019-02-12T19:56:10.924Z,6.20
2019-02-12T19:58:37.758Z,5.67
2019-02-12T20:01:04.599Z,5.80
2019-02-12T20:03:31.141Z,6.27
2019-02-12T20:05:57.666Z,6.40
2019-02-12T20:08:24.206Z,6.27
2019-02-12T20:10:50.736Z,5.60
2019-02-12T20:13:17.659Z,6.23
2019-02-12T20:15:44.456Z,6.10
2019-02-12T20:18:10.964Z,13.33
2019-02-12T20:20:37.882Z,17.17
2019-02-12T20:23:04.638Z,16.90
2019-02-12T20:25:31.482Z,12.40
2019-02-12T20:27:58.320Z,23.43
2019-02-12T20:30:24.852Z,11.70
2019-02-12T20:32:53.256Z,11.37
2019-02-12T20:35:20.382Z,6.97
2019-02-12T20:37:47.229Z,8.60
2019-02-12T20:40:13.755Z,9.10
2019-02-12T20:42:40.292Z,11.80
2019-02-12T20:45:06.828Z,5.27
2019-02-12T20:47:33.369Z,9.00
2019-02-12T20:50:00.219Z,12.07
2019-02-12T20:52:27.352Z,7.90
2019-02-12T20:54:53.885Z,9.97
2019-02-12T20:57:20.428Z,9.13
2019-02-12T20:59:46.952Z,6.93
2019-02-12T21:02:13.574Z,6.07
2019-02-12T21:04:40.333Z,9.27
2019-02-12T21:07:07.171Z,7.37
2019-02-12T21:09:34.015Z,8.47
2019-02-12T21:12:00.955Z,14.20
2019-02-12T21:14:27.699Z,7.73
2019-02-12T21:16:54.236Z,8.27
2019-02-12T21:19:20.767Z,12.23
2019-02-12T21:21:47.401Z,7.17
2019-02-12T21:24:14.141Z,8.23
2019-02-12T21:26:40.779Z,12.17
2019-02-12T21:29:07.520Z,9.03
2019-02-12T21:31:34.051Z,8.90
2019-02-12T21:34:00.897Z,11.33
2019-02-12T21:36:27.427Z,17.93
2019-02-12T21:38:54.270Z,13.30
2019-02-12T21:41:20.803Z,23.50
2019-02-12T21:43:47.343Z,14.47
2019-02-12T21:46:13.871Z,18.10
2019-02-12T21:48:40.722Z,15.10
2019-02-12T21:51:07.559Z,9.70
2019-02-12T21:53:34.098Z,12.70
2019-02-12T21:56:00.629Z,21.13
2019-02-12T21:58:27.160Z,12.07
2019-02-12T22:00:54.005Z,15.30
2019-02-12T22:03:21.394Z,19.23
2019-02-12T22:05:48.304Z,12.93
2019-02-12T22:08:14.839Z,13.97
2019-02-12T22:10:46.333Z,9.23
2019-02-12T22:13:09.747Z,13.20
2019-02-12T22:15:36.590Z,11.33
2019-02-12T22:18:03.121Z,7.80
2019-02-12T22:20:29.738Z,14.43
2019-02-12T22:22:56.486Z,17.10
2019-02-12T22:25:23.038Z,14.20
2019-02-12T22:27:49.876Z,11.73
2019-02-12T22:30:16.716Z,9.50
2019-02-12T22:32:43.259Z,10.07
2019-02-12T22:35:09.783Z,10.00
2019-02-12T22:37:36.334Z,11.13
2019-02-12T22:40:03.161Z,11.87
2019-02-12T22:42:29.700Z,10.57
2019-02-12T22:44:56.228Z,9.33
2019-02-12T22:47:22.767Z,10.07
2019-02-12T22:49:49.300Z,11.00
2019-02-12T22:52:16.141Z,10.23
2019-02-12T22:54:42.675Z,10.43
2019-02-12T22:57:09.518Z,8.50
2019-02-12T22:59:36.054Z,8.50
2019-02-12T23:02:02.792Z,10.13
2019-02-12T23:04:29.425Z,9.30
2019-02-12T23:06:55.962Z,8.83
2019-02-12T23:09:22.578Z,7.90
2019-02-12T23:11:49.353Z,8.20
2019-02-12T23:14:16.594Z,12.00
2019-02-12T23:16:43.502Z,9.93
2019-02-12T23:19:10.177Z,11.17
2019-02-12T23:21:37.090Z,8.77
2019-02-12T23:24:03.853Z,9.80
2019-02-12T23:26:30.798Z,7.33
2019-02-12T23:28:57.539Z,8.60
2019-02-12T23:31:24.074Z,9.87
2019-02-12T23:33:50.611Z,8.03
2019-02-12T23:36:17.451Z,9.77
2019-02-12T23:38:43.988Z,12.40
2019-02-12T23:41:10.829Z,9.27
2019-02-12T23:43:37.358Z,9.77
2019-02-12T23:46:03.894Z,9.20
2019-02-12T23:48:30.429Z,12.90
2019-02-12T23:50:56.963Z,7.60
2019-02-12T23:53:23.577Z,8.97
2019-02-12T23:55:50.336Z,9.93
2019-02-12T23:58:16.880Z,10.67
